This is the latest recevied weather packets stored in our database for station/object WX3I. If no packets are shown the sender has not sent any weather packets the latest 10 day(s).
| Time | Temp. | Humidity | Pressure | Rain* | Wind** | Luminosity | Snow |
|---|---|---|---|---|---|---|---|
| 1777667404 | 17.22° C | 38% | 1012.4 hPa | 0 mm | - | 793 W/m² | - |
| 1777665304 | 17.22° C | 37% | 1012.7 hPa | 0 mm | - | 916 W/m² | - |
| 1777664405 | 17.22° C | 38% | 1012.8 hPa | 0 mm | - | 964 W/m² | - |
| 1777662305 | 16.11° C | 41% | 1013.2 hPa | 0 mm | - | 1060 W/m² | - |
| 1777661704 | 16.67° C | 41% | 1013.4 hPa | 0 mm | - | 1083 W/m² | - |
| 1777661405 | 16.67° C | 39% | 1013.5 hPa | 0 mm | - | 1093 W/m² | - |
| 1777659004 | 16.11° C | 43% | 1013.7 hPa | 0 mm | - | 1157 W/m² | - |
| 1777657504 | 15.56° C | 42% | 1013.8 hPa | 0 mm | - | 1175 W/m² | - |
| 1777657205 | 15° C | 45% | 1013.9 hPa | 0 mm | - | 1177 W/m² | - |
| 1777655704 | 15° C | 45% | 1014 hPa | 0 mm | - | 1176 W/m² | - |
| 1777654804 | 14.44° C | 44% | 1014.2 hPa | 0 mm | - | 1167 W/m² | - |
| 1777653004 | 14.44° C | 44% | 1014.7 hPa | 0 mm | - | 1131 W/m² | - |
| 1777652404 | 13.89° C | 44% | 1014.7 hPa | 0 mm | - | 1115 W/m² | - |
| 1777651804 | 13.89° C | 43% | 1014.8 hPa | 0 mm | - | 1095 W/m² | - |
| 1777650004 | 13.89° C | 50% | 1015.4 hPa | 0 mm | - | 1024 W/m² | - |
| 1777648504 | 12.78° C | 52% | 1015.5 hPa | 0 mm | - | 951 W/m² | - |
| 1777647304 | 12.78° C | 52% | 1015.5 hPa | 0 mm | - | 886 W/m² | - |
| 1777645804 | 11.67° C | 56% | 1015.6 hPa | 0 mm | - | 796 W/m² | - |
| 1777645205 | 11.67° C | 57% | 1015.6 hPa | 0 mm | - | 759 W/m² | - |
| 1777644304 | 11.11° C | 59% | 1015.8 hPa | 0 mm | - | 701 W/m² | - |
| 1777643105 | 10.56° C | 64% | 1016 hPa | 0 mm | - | 623 W/m² | - |
| 1777642204 | 10.56° C | 63% | 1015.8 hPa | 0 mm | - | 563 W/m² | - |
| 1777641304 | 10.56° C | 65% | 1015.6 hPa | 0 mm | - | 504 W/m² | - |
| 1777639505 | 9.44° C | 69% | 1015.6 hPa | 0 mm | - | 388 W/m² | - |
| 1777637104 | 8.33° C | 74% | 1015.7 hPa | 0 mm | - | 244 W/m² | - |
* Rain latest hour (hover to see other rain measurements)
** Current wind speed in m/s (hover to see current wind gust speed)